createdAt,value
2023-04-30T00:00:06.990Z,1152.00
2023-04-30T00:01:06.980Z,1120.00
2023-04-30T00:02:06.986Z,1063.00
2023-04-30T00:03:07.051Z,1022.00
2023-04-30T00:04:07.002Z,1060.00
2023-04-30T00:05:06.967Z,1101.00
2023-04-30T00:06:06.980Z,1133.00
2023-04-30T00:07:06.954Z,1143.00
2023-04-30T00:08:06.921Z,1136.00
2023-04-30T00:09:06.926Z,1112.00
2023-04-30T00:10:06.928Z,1076.00
2023-04-30T00:11:06.919Z,1076.00
2023-04-30T00:12:06.914Z,1032.00
2023-04-30T00:13:06.919Z,1045.00
2023-04-30T00:14:06.908Z,1096.00
2023-04-30T00:15:06.879Z,1039.00
2023-04-30T00:16:06.944Z,1068.00
2023-04-30T00:17:06.873Z,1052.00
2023-04-30T00:18:06.910Z,1008.00
2023-04-30T00:19:06.860Z,1011.00
2023-04-30T00:20:06.853Z,1063.00
2023-04-30T00:21:06.850Z,1096.00
2023-04-30T00:22:06.828Z,1051.00
2023-04-30T00:23:06.837Z,1046.00
2023-04-30T00:24:06.840Z,1056.00
2023-04-30T00:25:06.823Z,999.00
2023-04-30T00:26:06.818Z,1065.00
2023-04-30T00:27:06.796Z,1089.00
2023-04-30T00:28:06.798Z,1002.00
2023-04-30T00:29:06.791Z,1010.00
2023-04-30T00:30:06.779Z,1015.00
2023-04-30T00:31:06.793Z,1034.00
2023-04-30T00:32:06.833Z,1026.00
2023-04-30T00:33:06.875Z,1005.00
2023-04-30T00:34:06.766Z,1004.00
2023-04-30T00:35:06.815Z,986.00
2023-04-30T00:36:06.856Z,1038.00
2023-04-30T00:37:06.906Z,1005.00
2023-04-30T00:38:06.959Z,1034.00
2023-04-30T00:39:07.021Z,1078.00
2023-04-30T00:40:07.088Z,1102.00
2023-04-30T00:41:07.127Z,1101.00
2023-04-30T00:42:07.177Z,1057.00
2023-04-30T00:43:07.248Z,1045.00
2023-04-30T00:44:07.321Z,1060.00
2023-04-30T00:45:07.323Z,1067.00
2023-04-30T00:46:07.367Z,1113.00
2023-04-30T00:47:07.339Z,1060.00
2023-04-30T00:48:07.390Z,1013.00
2023-04-30T00:49:07.386Z,1005.00
2023-04-30T00:50:07.415Z,1031.00
2023-04-30T00:51:07.409Z,1031.00
2023-04-30T00:52:07.436Z,998.00
2023-04-30T00:53:07.466Z,979.00
2023-04-30T00:54:07.485Z,971.00
2023-04-30T00:55:07.544Z,1023.00
2023-04-30T00:56:07.603Z,1058.00
2023-04-30T00:57:07.653Z,1110.00
2023-04-30T00:58:07.685Z,1129.00
2023-04-30T00:59:07.753Z,1105.00
2023-04-30T01:00:07.780Z,1152.00
2023-04-30T01:01:07.873Z,1046.00
2023-04-30T01:02:07.955Z,1067.00
2023-04-30T01:03:08.003Z,1033.00
2023-04-30T01:04:07.991Z,1027.00
2023-04-30T01:05:08.094Z,1052.00
2023-04-30T01:06:08.136Z,995.00
2023-04-30T01:07:08.164Z,1059.00
2023-04-30T01:08:08.218Z,1081.00
2023-04-30T01:09:08.236Z,1079.00
2023-04-30T01:10:08.255Z,1011.00
2023-04-30T01:11:08.253Z,1009.00
2023-04-30T01:12:08.286Z,990.00
2023-04-30T01:13:08.302Z,981.00
2023-04-30T01:14:08.343Z,1072.00
2023-04-30T01:15:08.339Z,1117.00
2023-04-30T01:16:08.453Z,1127.00
2023-04-30T01:17:08.412Z,1076.00
2023-04-30T01:18:08.463Z,1041.00
2023-04-30T01:19:08.494Z,1052.00
2023-04-30T01:20:08.478Z,1056.00
2023-04-30T01:21:08.518Z,949.00
2023-04-30T01:22:08.541Z,981.00
2023-04-30T01:23:08.575Z,975.00
2023-04-30T01:24:08.598Z,1016.00
2023-04-30T01:25:08.607Z,1036.00
2023-04-30T01:26:08.636Z,1058.00
2023-04-30T01:27:08.666Z,1081.00
2023-04-30T01:28:08.722Z,1097.00
2023-04-30T01:29:08.732Z,1076.00
2023-04-30T01:30:08.772Z,1104.00
2023-04-30T01:31:08.815Z,1032.00
2023-04-30T01:32:08.826Z,1052.00
2023-04-30T01:33:08.996Z,1063.00
2023-04-30T01:34:08.861Z,1030.00
2023-04-30T01:35:08.901Z,1020.00
2023-04-30T01:36:08.942Z,1091.00
2023-04-30T01:37:08.949Z,1057.00
2023-04-30T01:38:08.976Z,1034.00
2023-04-30T01:39:08.997Z,1053.00
2023-04-30T01:40:09.023Z,1059.00
2023-04-30T01:41:09.053Z,1096.00
2023-04-30T01:42:09.083Z,1041.00
2023-04-30T01:43:09.121Z,1052.00
2023-04-30T01:44:09.220Z,1055.00
2023-04-30T01:45:09.201Z,1053.00
2023-04-30T01:46:09.212Z,1069.00
2023-04-30T01:47:09.239Z,1063.00
2023-04-30T01:48:09.294Z,1067.00
2023-04-30T01:49:09.356Z,1064.00
2023-04-30T01:50:09.410Z,1071.00
2023-04-30T01:51:09.461Z,1090.00
2023-04-30T01:52:09.513Z,1073.00
2023-04-30T01:53:09.573Z,973.00
2023-04-30T01:54:09.604Z,1023.00
2023-04-30T01:55:09.638Z,1034.00
2023-04-30T01:56:09.656Z,1075.00
2023-04-30T01:57:09.689Z,1081.00
2023-04-30T01:58:09.746Z,1081.00
2023-04-30T01:59:09.798Z,1108.00
2023-04-30T02:00:09.862Z,1049.00
2023-04-30T02:01:09.959Z,1064.00
2023-04-30T02:02:09.984Z,1078.00
2023-04-30T02:03:10.148Z,1049.00
2023-04-30T02:04:10.116Z,1082.00
2023-04-30T02:05:10.177Z,1148.00
2023-04-30T02:06:10.293Z,1155.00
2023-04-30T02:07:10.292Z,1134.00
2023-04-30T02:08:10.395Z,1170.00
2023-04-30T02:09:10.426Z,1166.00
2023-04-30T02:10:10.443Z,1125.00
2023-04-30T02:11:10.471Z,1121.00
2023-04-30T02:12:10.496Z,1144.00
2023-04-30T02:13:10.535Z,1141.00
2023-04-30T02:14:10.559Z,1167.00
2023-04-30T02:15:10.608Z,1149.00
2023-04-30T02:16:10.641Z,1161.00
2023-04-30T02:17:10.665Z,1134.00
2023-04-30T02:18:10.729Z,1134.00
2023-04-30T02:19:10.726Z,1125.00
2023-04-30T02:20:10.759Z,1115.00
2023-04-30T02:21:10.820Z,1097.00
2023-04-30T02:22:10.871Z,1150.00
2023-04-30T02:23:10.931Z,1123.00
2023-04-30T02:24:11.013Z,1104.00
2023-04-30T02:25:11.051Z,1056.00
2023-04-30T02:26:11.074Z,1060.00
2023-04-30T02:27:11.104Z,1052.00
2023-04-30T02:28:11.197Z,1069.00
2023-04-30T02:29:11.256Z,1096.00
2023-04-30T02:30:11.308Z,1071.00
2023-04-30T02:31:11.395Z,1067.00
2023-04-30T02:32:11.428Z,1024.00
2023-04-30T02:33:11.509Z,1057.00
2023-04-30T02:34:11.578Z,1080.00
2023-04-30T02:35:11.623Z,1085.00
2023-04-30T02:36:11.683Z,1015.00
2023-04-30T02:37:11.739Z,1023.00
2023-04-30T02:38:11.761Z,1016.00
2023-04-30T02:39:11.811Z,1058.00
2023-04-30T02:40:11.900Z,1070.00
2023-04-30T02:41:11.881Z,1076.00
2023-04-30T02:42:11.898Z,1082.00
2023-04-30T02:43:11.932Z,1034.00
2023-04-30T02:44:11.970Z,1040.00
2023-04-30T02:45:11.997Z,1079.00
2023-04-30T02:46:12.113Z,1069.00
2023-04-30T02:47:12.105Z,1072.00
2023-04-30T02:48:12.178Z,1028.00
2023-04-30T02:49:12.238Z,1009.00
2023-04-30T02:50:12.291Z,1052.00
2023-04-30T02:51:12.364Z,1048.00
2023-04-30T02:52:12.387Z,1103.00
2023-04-30T02:53:12.413Z,1079.00
2023-04-30T02:54:12.440Z,1067.00
2023-04-30T02:55:12.492Z,1053.00
2023-04-30T02:56:12.508Z,1089.00
2023-04-30T02:57:12.576Z,1099.00
2023-04-30T02:58:12.611Z,1090.00
2023-04-30T02:59:12.654Z,1089.00
2023-04-30T03:00:12.723Z,1083.00
2023-04-30T03:01:12.823Z,1100.00
2023-04-30T03:02:12.849Z,1077.00
2023-04-30T03:03:13.049Z,1033.00
2023-04-30T03:04:12.974Z,1033.00
2023-04-30T03:05:13.029Z,1042.00
2023-04-30T03:06:13.135Z,1084.00
2023-04-30T03:07:13.209Z,1098.00
2023-04-30T03:08:13.221Z,1116.00
2023-04-30T03:09:13.284Z,1118.00
2023-04-30T03:10:13.319Z,1055.00
2023-04-30T03:11:13.352Z,1038.00
2023-04-30T03:12:13.407Z,978.00
2023-04-30T03:13:13.446Z,1026.00
2023-04-30T03:14:13.492Z,1033.00
2023-04-30T03:15:13.527Z,1053.00
2023-04-30T03:16:13.620Z,1054.00
2023-04-30T03:17:13.613Z,1040.00
2023-04-30T03:18:13.710Z,1047.00
2023-04-30T03:19:13.706Z,1055.00
2023-04-30T03:20:13.741Z,1041.00
2023-04-30T03:21:13.794Z,975.00
2023-04-30T03:22:13.821Z,999.00
2023-04-30T03:23:13.878Z,1036.00
2023-04-30T03:24:13.930Z,1029.00
2023-04-30T03:25:13.946Z,1038.00
2023-04-30T03:26:14.000Z,998.00
2023-04-30T03:27:14.032Z,1003.00
2023-04-30T03:28:14.060Z,1015.00
2023-04-30T03:29:14.115Z,1042.00
2023-04-30T03:30:14.190Z,1006.00
2023-04-30T03:31:14.206Z,1006.00
2023-04-30T03:32:14.230Z,1027.00
2023-04-30T03:33:14.371Z,1028.00
2023-04-30T03:34:14.293Z,1038.00
2023-04-30T03:35:14.337Z,1031.00
2023-04-30T03:36:14.381Z,1036.00
2023-04-30T03:37:14.452Z,1057.00
2023-04-30T03:38:14.487Z,1033.00
2023-04-30T03:39:14.531Z,1000.00
2023-04-30T03:40:14.568Z,957.00
2023-04-30T03:41:14.627Z,987.00
2023-04-30T03:42:14.669Z,975.00
2023-04-30T03:43:14.700Z,1048.00
2023-04-30T03:44:14.772Z,1074.00
2023-04-30T03:45:14.782Z,1059.00
2023-04-30T03:46:14.892Z,1020.00
2023-04-30T03:47:14.860Z,989.00
2023-04-30T03:48:14.969Z,1001.00
2023-04-30T03:49:14.966Z,997.00
2023-04-30T03:50:15.028Z,1040.00
2023-04-30T03:51:15.093Z,1011.00
2023-04-30T03:52:15.127Z,1005.00
2023-04-30T03:53:15.158Z,1015.00
2023-04-30T03:54:15.220Z,981.00
2023-04-30T03:55:15.288Z,943.00
2023-04-30T03:56:15.355Z,910.00
2023-04-30T03:57:15.533Z,936.00
2023-04-30T03:58:15.457Z,921.00
2023-04-30T03:59:15.540Z,897.00
2023-04-30T04:00:15.582Z,913.00
2023-04-30T04:01:15.626Z,912.00
2023-04-30T04:02:15.772Z,901.00
2023-04-30T04:03:15.753Z,878.00
2023-04-30T04:04:15.821Z,862.00
2023-04-30T04:05:15.773Z,877.00
2023-04-30T04:06:15.872Z,881.00
2023-04-30T04:07:15.872Z,851.00
2023-04-30T04:08:15.902Z,831.00
2023-04-30T04:09:15.946Z,828.00
2023-04-30T04:10:15.983Z,803.00
2023-04-30T04:11:15.999Z,815.00
2023-04-30T04:12:16.071Z,823.00
2023-04-30T04:13:16.134Z,819.00
2023-04-30T04:14:16.178Z,823.00
2023-04-30T04:15:16.251Z,820.00
2023-04-30T04:16:16.389Z,838.00
2023-04-30T04:17:16.366Z,819.00
2023-04-30T04:18:16.405Z,821.00
2023-04-30T04:19:16.504Z,813.00
2023-04-30T04:20:16.516Z,820.00
2023-04-30T04:21:16.552Z,852.00
2023-04-30T04:22:16.558Z,837.00
2023-04-30T04:23:16.598Z,844.00
2023-04-30T04:24:16.651Z,870.00
2023-04-30T04:25:16.657Z,851.00
2023-04-30T04:26:16.737Z,880.00
2023-04-30T04:27:16.739Z,868.00
2023-04-30T04:28:16.795Z,881.00
2023-04-30T04:29:16.847Z,889.00
2023-04-30T04:30:16.844Z,899.00
2023-04-30T04:31:16.919Z,906.00
2023-04-30T04:32:16.907Z,899.00
2023-04-30T04:33:16.942Z,922.00
2023-04-30T04:34:16.986Z,921.00
2023-04-30T04:35:17.038Z,928.00
2023-04-30T04:36:17.053Z,914.00
2023-04-30T04:37:17.072Z,946.00
2023-04-30T04:38:17.105Z,944.00
2023-04-30T04:39:17.124Z,939.00
2023-04-30T04:40:17.151Z,931.00
2023-04-30T04:41:17.213Z,980.00
2023-04-30T04:42:17.208Z,972.00
2023-04-30T04:43:17.256Z,964.00
2023-04-30T04:44:17.263Z,967.00
2023-04-30T04:45:17.313Z,963.00
2023-04-30T04:46:17.437Z,969.00
2023-04-30T04:47:17.429Z,957.00
2023-04-30T04:48:17.479Z,962.00
2023-04-30T04:49:17.513Z,964.00
2023-04-30T04:50:17.585Z,956.00
2023-04-30T04:51:17.634Z,975.00
2023-04-30T04:52:17.683Z,976.00
2023-04-30T04:53:17.731Z,969.00
2023-04-30T04:54:17.775Z,984.00
2023-04-30T04:55:17.832Z,1007.00
2023-04-30T04:56:17.914Z,997.00
2023-04-30T04:57:17.969Z,1011.00
2023-04-30T04:58:18.011Z,1006.00
2023-04-30T04:59:18.067Z,1006.00
2023-04-30T05:00:18.096Z,1007.00
2023-04-30T05:01:18.170Z,995.00
2023-04-30T05:02:18.133Z,984.00
2023-04-30T05:03:18.245Z,988.00
2023-04-30T05:04:18.185Z,999.00
2023-04-30T05:05:18.197Z,990.00
2023-04-30T05:06:18.330Z,970.00
2023-04-30T05:07:18.262Z,977.00
2023-04-30T05:08:18.320Z,979.00
2023-04-30T05:09:18.357Z,980.00
2023-04-30T05:10:18.370Z,968.00
2023-04-30T05:11:18.410Z,967.00
2023-04-30T05:12:18.423Z,955.00
2023-04-30T05:13:18.444Z,963.00
2023-04-30T05:14:18.453Z,975.00
2023-04-30T05:15:18.459Z,986.00
2023-04-30T05:16:18.545Z,983.00
2023-04-30T05:17:18.532Z,999.00
2023-04-30T05:18:18.536Z,1038.00
2023-04-30T05:19:18.616Z,990.00
2023-04-30T05:20:18.622Z,982.00
2023-04-30T05:21:18.652Z,984.00
2023-04-30T05:22:18.656Z,979.00
2023-04-30T05:23:18.686Z,959.00
2023-04-30T05:24:18.728Z,944.00
2023-04-30T05:25:18.739Z,918.00
2023-04-30T05:26:18.767Z,961.00
2023-04-30T05:27:18.787Z,948.00
2023-04-30T05:28:18.836Z,984.00
2023-04-30T05:29:18.882Z,977.00
2023-04-30T05:30:18.929Z,995.00
2023-04-30T05:31:20.806Z,999.00
2023-04-30T05:32:19.033Z,979.00
2023-04-30T05:33:19.070Z,943.00
2023-04-30T05:34:19.148Z,922.00
2023-04-30T05:35:19.182Z,954.00
2023-04-30T05:36:19.246Z,945.00
2023-04-30T05:37:19.267Z,930.00
2023-04-30T05:38:19.273Z,961.00
2023-04-30T05:39:19.336Z,952.00
2023-04-30T05:40:19.344Z,961.00
2023-04-30T05:41:19.345Z,968.00
2023-04-30T05:42:19.361Z,977.00
2023-04-30T05:43:19.384Z,983.00
2023-04-30T05:44:19.391Z,995.00
2023-04-30T05:45:19.406Z,951.00
2023-04-30T05:46:19.464Z,935.00
2023-04-30T05:47:19.469Z,909.00
2023-04-30T05:48:19.501Z,907.00
2023-04-30T05:49:19.533Z,934.00
2023-04-30T05:50:19.563Z,915.00
2023-04-30T05:51:19.596Z,939.00
2023-04-30T05:52:19.590Z,943.00
2023-04-30T05:53:19.617Z,937.00
2023-04-30T05:54:19.629Z,914.00
2023-04-30T05:55:19.636Z,933.00
2023-04-30T05:56:19.632Z,928.00
2023-04-30T05:57:19.625Z,948.00
2023-04-30T05:58:19.623Z,941.00
2023-04-30T05:59:19.681Z,937.00
2023-04-30T06:00:19.677Z,957.00
2023-04-30T06:01:19.667Z,931.00
2023-04-30T06:02:19.755Z,954.00
2023-04-30T06:03:19.804Z,935.00
2023-04-30T06:04:19.728Z,941.00
2023-04-30T06:05:19.767Z,928.00
2023-04-30T06:06:19.849Z,920.00
2023-04-30T06:07:19.851Z,903.00
2023-04-30T06:08:19.883Z,899.00
2023-04-30T06:09:19.882Z,922.00
2023-04-30T06:10:19.877Z,889.00
2023-04-30T06:11:19.902Z,892.00
2023-04-30T06:12:19.915Z,878.00
2023-04-30T06:13:19.900Z,899.00
2023-04-30T06:14:19.898Z,882.00
2023-04-30T06:15:19.929Z,881.00
2023-04-30T06:16:20.017Z,886.00
2023-04-30T06:17:20.067Z,895.00
2023-04-30T06:18:20.045Z,883.00
2023-04-30T06:19:20.067Z,883.00
2023-04-30T06:20:20.050Z,874.00
2023-04-30T06:21:20.098Z,886.00
2023-04-30T06:22:20.154Z,890.00
2023-04-30T06:23:20.212Z,894.00
2023-04-30T06:24:20.280Z,900.00
2023-04-30T06:25:20.300Z,895.00
2023-04-30T06:26:20.362Z,886.00
2023-04-30T06:27:20.405Z,894.00
2023-04-30T06:28:20.415Z,890.00
2023-04-30T06:29:20.442Z,909.00
2023-04-30T06:30:20.417Z,897.00
2023-04-30T06:31:20.442Z,885.00
2023-04-30T06:32:20.413Z,903.00
2023-04-30T06:33:20.401Z,898.00
2023-04-30T06:34:20.448Z,925.00
2023-04-30T06:35:20.422Z,903.00
2023-04-30T06:36:20.428Z,916.00
2023-04-30T06:37:20.565Z,902.00
2023-04-30T06:38:20.448Z,894.00
2023-04-30T06:39:20.459Z,895.00
2023-04-30T06:40:20.454Z,891.00
2023-04-30T06:41:20.457Z,915.00
2023-04-30T06:42:20.514Z,896.00
2023-04-30T06:43:20.545Z,904.00
2023-04-30T06:44:20.572Z,899.00
2023-04-30T06:45:20.584Z,891.00
2023-04-30T06:46:20.695Z,893.00
2023-04-30T06:47:20.733Z,900.00
2023-04-30T06:48:20.741Z,892.00
2023-04-30T06:49:20.789Z,878.00
2023-04-30T06:50:20.830Z,903.00
2023-04-30T06:51:20.888Z,897.00
2023-04-30T06:52:20.974Z,894.00
2023-04-30T06:53:21.035Z,904.00
2023-04-30T06:54:21.064Z,911.00
2023-04-30T06:55:21.103Z,908.00
2023-04-30T06:56:21.132Z,901.00
2023-04-30T06:57:21.164Z,901.00
2023-04-30T06:58:21.227Z,919.00
2023-04-30T06:59:21.267Z,901.00
2023-04-30T07:00:21.298Z,895.00
2023-04-30T07:01:21.354Z,876.00
2023-04-30T07:02:22.208Z,876.00
2023-04-30T07:03:21.497Z,901.00
2023-04-30T07:04:21.534Z,890.00
2023-04-30T07:05:21.556Z,873.00
2023-04-30T07:06:21.674Z,880.00
2023-04-30T07:07:21.711Z,874.00
2023-04-30T07:08:21.765Z,873.00
2023-04-30T07:09:21.836Z,881.00
2023-04-30T07:10:21.870Z,870.00
2023-04-30T07:11:21.921Z,868.00
2023-04-30T07:12:21.971Z,876.00
2023-04-30T07:13:22.020Z,875.00
2023-04-30T07:14:22.115Z,880.00
2023-04-30T07:15:22.134Z,875.00
2023-04-30T07:16:22.221Z,866.00
2023-04-30T07:17:22.305Z,853.00
2023-04-30T07:18:22.317Z,843.00
2023-04-30T07:19:22.357Z,854.00
2023-04-30T07:20:22.425Z,844.00
2023-04-30T07:21:22.464Z,863.00
2023-04-30T07:22:22.517Z,853.00
2023-04-30T07:23:22.572Z,857.00
2023-04-30T07:24:22.671Z,866.00
2023-04-30T07:25:22.652Z,858.00
2023-04-30T07:26:22.716Z,872.00
2023-04-30T07:27:22.751Z,882.00
2023-04-30T07:28:22.790Z,878.00
2023-04-30T07:29:22.860Z,884.00
2023-04-30T07:30:24.907Z,874.00
2023-04-30T07:31:22.974Z,883.00
2023-04-30T07:32:23.015Z,888.00
2023-04-30T07:33:23.070Z,906.00
2023-04-30T07:34:23.115Z,882.00
2023-04-30T07:35:23.212Z,892.00
2023-04-30T07:36:23.174Z,868.00
2023-04-30T07:37:23.167Z,863.00
2023-04-30T07:38:23.185Z,872.00
2023-04-30T07:39:23.194Z,869.00
2023-04-30T07:41:23.178Z,866.00
2023-04-30T07:42:23.200Z,892.00
2023-04-30T07:43:23.194Z,889.00
2023-04-30T07:44:23.228Z,895.00
2023-04-30T07:45:23.294Z,864.00
2023-04-30T07:46:23.374Z,873.00
2023-04-30T07:47:23.388Z,870.00
2023-04-30T07:48:23.444Z,867.00
2023-04-30T07:49:23.477Z,874.00
2023-04-30T07:50:23.542Z,872.00
2023-04-30T07:51:23.597Z,883.00
2023-04-30T07:52:23.637Z,875.00
2023-04-30T07:53:23.677Z,887.00
2023-04-30T07:54:23.718Z,879.00
2023-04-30T07:55:23.755Z,884.00
2023-04-30T07:56:23.791Z,879.00
2023-04-30T07:57:23.821Z,877.00
2023-04-30T07:58:23.882Z,862.00
2023-04-30T07:59:23.908Z,855.00
2023-04-30T08:00:23.973Z,861.00
2023-04-30T08:01:24.005Z,863.00
2023-04-30T08:02:24.200Z,878.00
2023-04-30T08:03:24.188Z,893.00
2023-04-30T08:04:24.301Z,875.00
2023-04-30T08:05:24.165Z,894.00
2023-04-30T08:06:24.244Z,900.00
2023-04-30T08:07:24.263Z,892.00
2023-04-30T08:08:24.305Z,897.00
2023-04-30T08:09:24.369Z,891.00
2023-04-30T08:10:24.384Z,879.00
2023-04-30T08:11:24.417Z,883.00
2023-04-30T08:12:24.470Z,877.00
2023-04-30T08:13:24.448Z,881.00
2023-04-30T08:14:24.445Z,869.00
2023-04-30T08:15:24.506Z,886.00
2023-04-30T08:16:24.568Z,873.00
2023-04-30T08:17:24.592Z,874.00
2023-04-30T08:18:24.574Z,876.00
2023-04-30T08:19:24.606Z,873.00
2023-04-30T08:20:24.655Z,897.00
2023-04-30T08:21:24.689Z,881.00
2023-04-30T08:22:24.730Z,888.00
2023-04-30T08:23:24.792Z,886.00
2023-04-30T08:24:24.831Z,885.00
2023-04-30T08:25:24.854Z,869.00
2023-04-30T08:26:24.897Z,871.00
2023-04-30T08:27:24.918Z,874.00
2023-04-30T08:28:24.959Z,864.00
2023-04-30T08:29:24.974Z,868.00
2023-04-30T08:30:25.004Z,864.00
2023-04-30T08:31:25.088Z,867.00
2023-04-30T08:32:25.204Z,863.00
2023-04-30T08:33:25.057Z,856.00
2023-04-30T08:34:25.067Z,849.00
2023-04-30T08:35:25.091Z,843.00
2023-04-30T08:36:25.116Z,851.00
2023-04-30T08:37:25.154Z,845.00
2023-04-30T08:38:26.972Z,849.00
2023-04-30T08:39:25.193Z,858.00
2023-04-30T08:40:43.462Z,854.00
2023-04-30T08:41:26.166Z,854.00
2023-04-30T08:42:25.179Z,839.00
2023-04-30T08:43:25.172Z,856.00
2023-04-30T08:44:25.169Z,855.00
2023-04-30T08:45:25.157Z,842.00
2023-04-30T08:46:25.204Z,845.00
2023-04-30T08:47:25.156Z,836.00
2023-04-30T08:48:25.126Z,830.00
2023-04-30T08:49:25.154Z,825.00
2023-04-30T08:50:25.175Z,837.00
2023-04-30T08:51:25.202Z,824.00
2023-04-30T08:52:25.276Z,819.00
2023-04-30T08:53:25.317Z,819.00
2023-04-30T08:54:25.377Z,817.00
2023-04-30T08:55:25.438Z,798.00
2023-04-30T08:56:25.722Z,800.00
2023-04-30T08:57:25.592Z,812.00
2023-04-30T08:58:25.625Z,799.00
2023-04-30T08:59:25.619Z,798.00
2023-04-30T09:00:25.646Z,805.00
2023-04-30T09:01:25.711Z,804.00
2023-04-30T09:02:25.762Z,810.00
2023-04-30T09:03:25.787Z,806.00
2023-04-30T09:04:25.744Z,806.00
2023-04-30T09:05:25.753Z,819.00
2023-04-30T09:06:25.868Z,820.00
2023-04-30T09:07:25.887Z,798.00
2023-04-30T09:08:25.917Z,789.00
2023-04-30T09:09:25.984Z,799.00
2023-04-30T09:10:26.044Z,777.00
2023-04-30T09:11:26.074Z,791.00
2023-04-30T09:12:26.144Z,774.00
2023-04-30T09:13:26.178Z,777.00
2023-04-30T09:14:26.225Z,814.00
2023-04-30T09:15:26.293Z,799.00
2023-04-30T09:16:26.568Z,814.00
2023-04-30T09:17:26.460Z,794.00
2023-04-30T09:18:26.408Z,783.00
2023-04-30T09:19:26.351Z,787.00
2023-04-30T09:20:26.334Z,775.00
2023-04-30T09:21:26.358Z,791.00
2023-04-30T09:22:26.399Z,782.00
2023-04-30T09:23:26.376Z,775.00
2023-04-30T09:24:26.376Z,797.00
2023-04-30T09:25:26.387Z,773.00
2023-04-30T09:26:26.408Z,822.00
2023-04-30T09:27:26.482Z,798.00
2023-04-30T09:28:26.553Z,781.00
2023-04-30T09:29:26.538Z,751.00
2023-04-30T09:30:26.542Z,741.00
2023-04-30T09:31:26.594Z,719.00
2023-04-30T09:32:27.391Z,719.00
2023-04-30T09:33:26.629Z,683.00
2023-04-30T09:34:26.644Z,678.00
2023-04-30T09:35:26.692Z,662.00
2023-04-30T09:36:26.756Z,665.00
2023-04-30T09:37:26.806Z,645.00
2023-04-30T09:38:26.819Z,643.00
2023-04-30T09:39:26.830Z,638.00
2023-04-30T09:40:26.831Z,635.00
2023-04-30T09:41:26.860Z,623.00
2023-04-30T09:42:26.837Z,619.00
2023-04-30T09:43:26.828Z,616.00
2023-04-30T09:44:26.834Z,602.00
2023-04-30T09:45:26.826Z,598.00
2023-04-30T09:46:26.884Z,603.00
2023-04-30T09:47:26.949Z,609.00
2023-04-30T09:48:26.971Z,595.00
2023-04-30T09:49:27.023Z,593.00
2023-04-30T09:50:27.074Z,588.00
2023-04-30T09:51:27.094Z,580.00
2023-04-30T09:52:27.114Z,577.00
2023-04-30T09:53:27.177Z,572.00
2023-04-30T09:54:27.233Z,576.00
2023-04-30T09:55:27.269Z,575.00
2023-04-30T09:56:27.278Z,583.00
2023-04-30T09:57:27.339Z,581.00
2023-04-30T09:58:27.363Z,575.00
2023-04-30T09:59:27.432Z,556.00
2023-04-30T10:00:27.595Z,558.00
2023-04-30T10:01:27.554Z,558.00
2023-04-30T10:02:27.615Z,564.00
2023-04-30T10:03:27.669Z,560.00
2023-04-30T10:04:27.806Z,554.00
2023-04-30T10:05:27.795Z,553.00
2023-04-30T10:06:27.863Z,551.00
2023-04-30T10:07:27.905Z,560.00
2023-04-30T10:08:27.960Z,537.00
2023-04-30T10:09:28.041Z,546.00
2023-04-30T10:10:28.078Z,536.00
2023-04-30T10:11:28.127Z,544.00
2023-04-30T10:12:28.188Z,525.00
2023-04-30T10:13:28.231Z,522.00
2023-04-30T10:14:28.274Z,523.00
2023-04-30T10:15:28.333Z,523.00
2023-04-30T10:16:28.422Z,517.00
2023-04-30T10:17:28.440Z,521.00
2023-04-30T10:18:28.472Z,515.00
2023-04-30T10:19:28.500Z,517.00
2023-04-30T10:20:28.542Z,522.00
2023-04-30T10:21:28.584Z,509.00
2023-04-30T10:22:28.630Z,510.00
2023-04-30T10:23:28.674Z,501.00
2023-04-30T10:24:28.741Z,505.00
2023-04-30T10:25:28.724Z,497.00
2023-04-30T10:26:28.731Z,498.00
2023-04-30T10:27:28.723Z,510.00
2023-04-30T10:28:28.747Z,515.00
2023-04-30T10:29:28.721Z,512.00
2023-04-30T10:30:28.748Z,515.00
2023-04-30T10:31:28.782Z,519.00
2023-04-30T10:32:28.879Z,510.00
2023-04-30T10:33:28.770Z,507.00
2023-04-30T10:34:28.807Z,502.00
2023-04-30T10:35:28.853Z,502.00
2023-04-30T10:36:28.911Z,507.00
2023-04-30T10:37:28.901Z,498.00
2023-04-30T10:38:28.923Z,506.00
2023-04-30T10:39:28.972Z,508.00
2023-04-30T10:40:28.973Z,508.00
2023-04-30T10:41:28.999Z,502.00
2023-04-30T10:42:29.060Z,515.00
2023-04-30T10:43:29.065Z,518.00
2023-04-30T10:44:29.074Z,516.00
2023-04-30T10:45:29.068Z,506.00
2023-04-30T10:46:29.151Z,517.00
2023-04-30T10:47:29.129Z,514.00
2023-04-30T10:48:29.150Z,503.00
2023-04-30T10:49:29.165Z,523.00
2023-04-30T10:50:29.217Z,511.00
2023-04-30T10:51:29.227Z,516.00
2023-04-30T10:52:29.263Z,504.00
2023-04-30T10:53:29.396Z,502.00
2023-04-30T10:54:29.317Z,512.00
2023-04-30T10:55:29.340Z,511.00
2023-04-30T10:56:29.374Z,520.00
2023-04-30T10:57:29.420Z,545.00
2023-04-30T10:58:29.435Z,547.00
2023-04-30T10:59:29.474Z,539.00
2023-04-30T11:00:29.521Z,531.00
2023-04-30T11:01:29.591Z,545.00
2023-04-30T11:02:29.687Z,550.00
2023-04-30T11:03:29.723Z,561.00
2023-04-30T11:04:29.716Z,562.00
2023-04-30T11:05:29.705Z,568.00
2023-04-30T11:06:29.713Z,567.00
2023-04-30T11:07:29.686Z,547.00
2023-04-30T11:08:29.714Z,561.00
2023-04-30T11:09:29.768Z,578.00
2023-04-30T11:10:29.717Z,580.00
2023-04-30T11:11:29.748Z,569.00
2023-04-30T11:12:29.771Z,554.00
2023-04-30T11:13:29.774Z,567.00
2023-04-30T11:14:29.777Z,586.00
2023-04-30T11:15:29.842Z,592.00
2023-04-30T11:16:29.948Z,591.00
2023-04-30T11:17:30.004Z,583.00
2023-04-30T11:18:29.923Z,593.00
2023-04-30T11:19:29.952Z,585.00
2023-04-30T11:20:29.989Z,591.00
2023-04-30T11:21:30.006Z,602.00
2023-04-30T11:22:30.081Z,569.00
2023-04-30T11:23:40.046Z,566.00
2023-04-30T11:24:31.039Z,565.00
2023-04-30T11:25:30.031Z,555.00
2023-04-30T11:26:30.024Z,567.00
2023-04-30T11:27:30.063Z,573.00
2023-04-30T11:28:30.060Z,557.00
2023-04-30T11:29:30.075Z,553.00
2023-04-30T11:30:29.995Z,531.00
2023-04-30T11:31:30.031Z,517.00
2023-04-30T11:32:30.059Z,504.00
2023-04-30T11:33:30.007Z,510.00
2023-04-30T11:34:29.967Z,501.00
2023-04-30T11:35:29.963Z,500.00
2023-04-30T11:36:29.963Z,522.00
2023-04-30T11:37:29.970Z,522.00
2023-04-30T11:38:29.959Z,516.00
2023-04-30T11:39:29.952Z,514.00
2023-04-30T11:40:29.932Z,507.00
2023-04-30T11:41:29.927Z,509.00
2023-04-30T11:42:29.925Z,532.00
2023-04-30T11:43:29.926Z,516.00
2023-04-30T11:44:29.902Z,510.00
2023-04-30T11:45:29.910Z,501.00
2023-04-30T11:46:29.909Z,501.00
2023-04-30T11:47:29.900Z,502.00
2023-04-30T11:48:29.878Z,500.00
2023-04-30T11:49:29.865Z,502.00
2023-04-30T11:50:29.964Z,513.00
2023-04-30T11:51:29.870Z,505.00
2023-04-30T11:52:29.874Z,529.00
2023-04-30T11:53:29.899Z,524.00
2023-04-30T11:54:29.942Z,510.00
2023-04-30T11:55:30.003Z,504.00
2023-04-30T11:56:30.004Z,508.00
2023-04-30T11:57:30.036Z,508.00
2023-04-30T11:58:30.051Z,516.00
2023-04-30T11:59:30.052Z,529.00
2023-04-30T12:00:30.102Z,511.00
2023-04-30T12:01:30.150Z,505.00
2023-04-30T12:02:30.237Z,507.00
2023-04-30T12:03:30.214Z,503.00
2023-04-30T12:04:30.374Z,504.00
2023-04-30T12:05:30.186Z,506.00
2023-04-30T12:06:30.242Z,500.00
2023-04-30T12:07:30.230Z,509.00
2023-04-30T12:08:30.257Z,508.00
2023-04-30T12:09:30.278Z,500.00
2023-04-30T12:10:30.293Z,500.00
2023-04-30T12:11:30.301Z,526.00
2023-04-30T12:12:30.327Z,526.00
2023-04-30T12:13:30.321Z,533.00
2023-04-30T12:14:30.930Z,531.00
2023-04-30T12:15:30.365Z,525.00
2023-04-30T12:16:30.461Z,528.00
2023-04-30T12:17:30.435Z,513.00
2023-04-30T12:18:30.427Z,518.00
2023-04-30T12:19:30.452Z,509.00
2023-04-30T12:20:30.461Z,511.00
2023-04-30T12:21:30.492Z,525.00
2023-04-30T12:22:30.503Z,532.00